Bounty Hunters Series Juli 2024

GGPoker Bounty Hunters Series

An alle Kopfgeldjäger da draußen! Die beliebte Bounty Hunters Series kehrt mit doppelten Einsätzen zurück. Vom 07. – 29. Juli 2024 garantiert GGPoker einen Gesamtpreispool in Höhe von $50 Millionen und erhöht zusätzlich die Preise beim Bounty King Daily Leaderboard auf $40.000.

Die Event-Highlights

  • $108 Mystery Bounty Main Event, $4M GTD
    Ein Rekordbrecher mit ZEHN $100K Mystery Bounties
  • $25 Mystery Bounty Mini Main, $2M GTD
    Der größte Kick, den du für dein Geld bekommen kannst
  • $50 Global MILLION$ Bounty Edition, $1M GTD
    Die Bounty Edition des beliebtesten Turniers der Welt
  • Bounty Hunter Series Sonntagsausgabe
    Alle großen Bounty-Turniere tragen zum Bounty King Leaderboard bei!
  • In der Bounty Hunter Series kann sich dein Leben innerhalb eines Wimpernschlages ändern.
Schalte deine Gegner aus, um Preise bis zu 100.000 $ zu gewinnen.

    Das Bounty King Leaderboard

    Hol dir die meisten Knockouts und werde der Bounty King! An allen Spieltagen werden alle Knockouts der Teilnehmer an den Series Events getrackt und täglich Prämien im Wert von $25.000 an die besten Kopfgeldjäger ausgeschüttet.

    (1KO = 1 Ranglistenpunkt)

    Der komplette Spielplan

    Datum Tag MEZ Event Buy-In GTD
    07. Juli So 14:30 $215 Sunday Bounty Blast-Off $215 $35,000
    07. Juli So 14:30 $25 Sunday Bounty Blast-Off $25 $100,000
    07. Juli So 15:30 $10.80 Sunday Bounty Seven-Max $10.80 $50,000
    07. Juli So 15:30 $108 Sunday Bounty Seven-Max $108 $70,000
    07. Juli So 16:05 $10 Speed Racer POWER HOUR [10 BB] $10 $12,500
    07. Juli So 16:15 $25 Speed Racer POWER HOUR [10 BB] $25 $12,500
    07. Juli So 16:25 $50 Speed Racer POWER HOUR [10 BB] $50 $12,500
    07. Juli So 16:30 $840 Sunday Bounty Warm-Up HR $840 $75,000
    07. Juli So 16:30 $88 Sunday Bounty Warm-Up $88 $175,000
    07. Juli So 16:35 $100 Speed Racer POWER HOUR [10 BB] $100 $10,000
    07. Juli So 16:45 $200 Speed Racer POWER HOUR [10 BB] $200 $12,500
    07. Juli So 17:30 $44 Sunday Bounty Forty Stack $44 $200,000
    07. Juli So 18:30 $525 Bounty Hunters HR Main Event, $1M GTD $525 $1,000,000
    07. Juli So 18:30 $54 Bounty Hunters Sunday Main Event $54 $500,000
    07. Juli So 19:30 $215 Sunday Bounty Big Game $215 $350,000
    07. Juli So 19:30 $21.60 Sunday Bounty Big Game $21.60 $200,000
    07. Juli So 19:40 $215 Sunday Omaholic Big Game $215 $50,000
    07. Juli So 21:00 $1,050 Sunday HR Main Event [Bounty Edition] $1,050 $300,000
    07. Juli So 21:30 $320 GGMasters Bounty Special Edition $320 $400,000
    07. Juli So 21:30 $32 Sunday Bounty King $32 $175,000
    07. Juli So 21:40 $1,050 Sunday Omaholic Bounty HR $1,050 $50,000
    07. Juli So 21:40 $150 Sunday Omaholic Bounty Main $150 $100,000
    07. Juli So 22:00 $108 Sunday Showdown [Mystery Bounty] $108 $400,000
    07. Juli So 22:00 $15 Mini Showdown [Mystery Bounty] $15 $250,000
    07. Juli So 23:00 $1,050 Sunday HEATER HR [Bounty Turbo] $1,050 $75,000
    07. Juli So 23:00 $215 Sunday HEATER [Bounty Turbo] $215 $125,000
    07. Juli So 23:00 $25 Sunday Mini HEATER [Bounty Turbo] $25 $100,000
    08. Juli Mo 00:30 $77 LUCKY SEVENS [Bounty Turbo] $77 $125,000
    08. Juli Mo 01:30 $215 Sunday Last Call [Bounty Hyper] $215 $60,000
    08. Juli Mo 02:00 $88 Midnight Madness [Bounty Hyper] $88 $40,000
    08. Juli Mo 03:05 $10 Speed Racer POWER HOUR [10 BB] $10 $5,000
    08. Juli Mo 03:15 $25 Speed Racer POWER HOUR [10 BB] $25 $7,000
    08. Juli Mo 03:25 $50 Speed Racer POWER HOUR [10 BB] $50 $6,000
    08. Juli Mo 03:35 $100 Speed Racer POWER HOUR [10 BB] $100 $7,000
    08. Juli Mo 03:45 $200 Speed Racer POWER HOUR [10 BB] $200 $7,000
    08. Juli Mo 14:30 $25 Bounty Blast-Off $25 $50,000
    08. Juli Mo 15:30 $10.80 Monday Hangover [Variable Levels] $10.80 $30,000
    08. Juli Mo 16:05 $10 Speed Racer POWER HOUR [10 BB] $10 $12,500
    08. Juli Mo 16:15 $25 Speed Racer POWER HOUR [10 BB] $25 $12,500
    08. Juli Mo 16:25 $50 Speed Racer POWER HOUR [10 BB] $50 $12,500
    08. Juli Mo 16:30 $88 Bounty Warm-Up $88 $60,000
    08. Juli Mo 16:35 $100 Speed Racer POWER HOUR [10 BB] $100 $10,000
    08. Juli Mo 16:45 $200 Speed Racer POWER HOUR [10 BB] $200 $12,500
    08. Juli Mo 17:30 $44 Bounty Forty Stack $44 $80,000
    08. Juli Mo 18:30 $525 Bounty Hunters HR [6-Max] $525 $300,000
    08. Juli Mo 18:30 $54 Bounty Hunters Daily Main [6-Max] $54 $250,000
    08. Juli Mo 19:30 $215 Bounty Big Game $215 $150,000
    08. Juli Mo 19:30 $25 Bounty Big Game $25 $100,000
    08. Juli Mo 20:00 $1,050 Monday Monster Stack HR [Bounty Edition] $1,050 $200,000
    08. Juli Mo 20:00 $150 Monday Monster Stack [Bounty Edition] $150 $150,000
    08. Juli Mo 20:00 $15 Mini Monday Monster Stack [Bounty Edition] $15 $75,000
    08. Juli Mo 21:30 $32 Bounty King $32 $70,000
    08. Juli Mo 21:40 $525 Omaholic Bounty Fifty Stack $525 $12,500
    08. Juli Mo 21:40 $54 Omaholic Bounty Fifty Stack $54 $15,000
    08. Juli Mo 23:00 $215 Daily HEATER [Bounty Turbo] $215 $50,000
    09. Juli Di 00:00 $66 SUPER SIX [Bounty Turbo] $66 $40,000
    09. Juli Di 00:30 $25 HYPER 5-MAX $25 $25,000
    09. Juli Di 02:00 $88 Midnight Madness [Bounty Hyper] $88 $40,000
    09. Juli Di 03:05 $10 Speed Racer POWER HOUR [10 BB] $10 $5,000
    09. Juli Di 03:15 $25 Speed Racer POWER HOUR [10 BB] $25 $7,000
    09. Juli Di 03:25 $50 Speed Racer POWER HOUR [10 BB] $50 $6,000
    09. Juli Di 03:35 $100 Speed Racer POWER HOUR [10 BB] $100 $7,000
    09. Juli Di 03:45 $200 Speed Racer POWER HOUR [10 BB] $200 $7,000
    09. Juli Di 15:30 $10.80 Bounty Hunters 6-Max $10.80 $35,000
    09. Juli Di 16:05 $10 Speed Racer POWER HOUR [10 BB] $10 $12,500
    09. Juli Di 16:15 $25 Speed Racer POWER HOUR [10 BB] $25 $12,500
    09. Juli Di 16:25 $50 Speed Racer POWER HOUR [10 BB] $50 $12,500
    09. Juli Di 16:35 $100 Speed Racer POWER HOUR [10 BB] $100 $10,000
    09. Juli Di 16:45 $200 Speed Racer POWER HOUR [10 BB] $200 $12,500
    09. Juli Di 18:30 $525 Bounty Hunters HR [Deepstack] $525 $200,000
    09. Juli Di 18:30 $54 Bounty Hunters Daily Main [Deepstack] $54 $250,000
    09. Juli Di 20:00 $1,050 Tuesday Classic HR [Bounty Edition] $1,050 $150,000
    09. Juli Di 20:00 $150 Tuesday Classic [Bounty Edition] $150 $200,000
    09. Juli Di 20:00 $15 Mini Tuesday Classic [Bounty Edition] $15 $85,000
    10. Juli Mi 03:05 $10 Speed Racer POWER HOUR [10 BB] $10 $5,000
    10. Juli Mi 03:15 $25 Speed Racer POWER HOUR [10 BB] $25 $7,000
    10. Juli Mi 03:25 $50 Speed Racer POWER HOUR [10 BB] $50 $6,000
    10. Juli Mi 03:35 $100 Speed Racer POWER HOUR [10 BB] $100 $7,000
    10. Juli Mi 03:45 $200 Speed Racer POWER HOUR [10 BB] $200 $7,000
    10. Juli Mi 15:30 $10.80 Bounty Hunters 6-Max $10.80 $35,000
    10. Juli Mi 16:05 $10 Speed Racer POWER HOUR [10 BB] $10 $12,500
    10. Juli Mi 16:15 $25 Speed Racer POWER HOUR [10 BB] $25 $12,500
    10. Juli Mi 16:25 $50 Speed Racer POWER HOUR [10 BB] $50 $12,500
    10. Juli Mi 16:35 $100 Speed Racer POWER HOUR [10 BB] $100 $10,000
    10. Juli Mi 16:45 $200 Speed Racer POWER HOUR [10 BB] $200 $12,500
    10. Juli Mi 18:30 $525 Bounty Hunters HR [Double Stack] $525 $200,000
    10. Juli Mi 18:30 $54 Bounty Hunters Daily Main [Double Stack] $54 $250,000
    10. Juli Mi 20:00 $1,050 Wednesday Wonderbox HR [Mystery Bounty] $1,050 $200,000
    10. Juli Mi 20:00 $150 Wednesday Wonderbox [Mystery Bounty] $150 $400,000
    10. Juli Mi 20:00 $15 Mini Wednesday Wonderbox [Mystery Bounty] $15 $200,000
    11. Juli Do 03:05 $10 Speed Racer POWER HOUR [10 BB] $10 $5,000
    11. Juli Do 03:15 $25 Speed Racer POWER HOUR [10 BB] $25 $7,000
    11. Juli Do 03:25 $50 Speed Racer POWER HOUR [10 BB] $50 $6,000
    11. Juli Do 03:35 $100 Speed Racer POWER HOUR [10 BB] $100 $7,000
    11. Juli Do 03:45 $200 Speed Racer POWER HOUR [10 BB] $200 $7,000
    11. Juli Do 15:30 $10.80 Bounty Hunters 6-Max $10.80 $35,000
    11. Juli Do 16:05 $10 Speed Racer POWER HOUR [10 BB] $10 $12,500
    11. Juli Do 16:15 $25 Speed Racer POWER HOUR [10 BB] $25 $12,500
    11. Juli Do 16:25 $50 Speed Racer POWER HOUR [10 BB] $50 $12,500
    11. Juli Do 16:35 $100 Speed Racer POWER HOUR [10 BB] $100 $10,000
    11. Juli Do 16:45 $200 Speed Racer POWER HOUR [10 BB] $200 $12,500
    11. Juli Do 18:30 $525 Bounty Hunters HR [Classic] $525 $300,000
    11. Juli Do 18:30 $54 Bounty Hunters Daily Main [Classic] $54 $250,000
    11. Juli Do 20:00 $1,050 Thursday Throwdown HR $1,050 $300,000
    11. Juli Do 20:00 $150 Thursday Throwdown $150 $200,000
    11. Juli Do 20:00 $15 Mini Thursday Throwdown $15 $85,000
    12. Juli Fr 03:05 $10 Speed Racer POWER HOUR [10 BB] $10 $5,000
    12. Juli Fr 03:15 $25 Speed Racer POWER HOUR [10 BB] $25 $7,000
    12. Juli Fr 03:25 $50 Speed Racer POWER HOUR [10 BB] $50 $6,000
    12. Juli Fr 03:35 $100 Speed Racer POWER HOUR [10 BB] $100 $7,000
    12. Juli Fr 03:45 $200 Speed Racer POWER HOUR [10 BB] $200 $7,000
    12. Juli Fr 15:30 $10.80 Furious Friday 5-Max $10.80 $30,000
    12. Juli Fr 16:05 $10 Speed Racer POWER HOUR [10 BB] $10 $12,500
    12. Juli Fr 16:15 $25 Speed Racer POWER HOUR [10 BB] $25 $12,500
    12. Juli Fr 16:25 $50 Speed Racer POWER HOUR [10 BB] $50 $12,500
    12. Juli Fr 16:35 $100 Speed Racer POWER HOUR [10 BB] $100 $10,000
    12. Juli Fr 16:45 $200 Speed Racer POWER HOUR [10 BB] $200 $12,500
    12. Juli Fr 18:30 $525 Bounty Hunters HR [Ultradeep Turbo] $525 $100,000
    12. Juli Fr 18:30 $54 Bounty Hunters Daily Main [Ultradeep Turbo] $54 $150,000
    12. Juli Fr 20:00 $1,050 Friday Night Fight HR [6-Max] $1,050 $150,000
    12. Juli Fr 20:00 $150 Friday Night Fight [6-Max] $150 $125,000
    12. Juli Fr 20:00 $15 Mini Friday Night Fight [6-Max] $15 $75,000
    13. Juli Sa 03:05 $10 Speed Racer POWER HOUR [10 BB] $10 $5,000
    13. Juli Sa 03:15 $25 Speed Racer POWER HOUR [10 BB] $25 $7,000
    13. Juli Sa 03:25 $50 Speed Racer POWER HOUR [10 BB] $50 $6,000
    13. Juli Sa 03:35 $100 Speed Racer POWER HOUR [10 BB] $100 $7,000
    13. Juli Sa 03:45 $200 Speed Racer POWER HOUR [10 BB] $200 $7,000
    13. Juli Sa 15:30 $10.80 Saturday Showdown 7-Max $10.80 $40,000
    13. Juli Sa 16:05 $10 Speed Racer POWER HOUR [10 BB] $10 $12,500
    13. Juli Sa 16:15 $25 Speed Racer POWER HOUR [10 BB] $25 $12,500
    13. Juli Sa 16:25 $50 Speed Racer POWER HOUR [10 BB] $50 $12,500
    13. Juli Sa 16:35 $100 Speed Racer POWER HOUR [10 BB] $100 $10,000
    13. Juli Sa 16:45 $200 Speed Racer POWER HOUR [10 BB] $200 $12,500
    13. Juli Sa 18:30 $525 Bounty Hunters HR [Big Bounties] $525 $200,000
    13. Juli Sa 18:30 $54 Bounty Hunters Daily Main [Big Bounties] $54 $250,000
    13. Juli Sa 20:00 $1,050 Saturday Secret KO HR [Mystery Bounty] $1,050 $250,000
    13. Juli Sa 20:00 $150 Saturday Secret KO [Mystery Bounty] $150 $500,000
    13. Juli Sa 20:00 $15 Mini Saturday Secret KO [Mystery Bounty] $15 $250,000
    14. Juli So 03:05 $10 Speed Racer POWER HOUR [10 BB] $10 $5,000
    14. Juli So 03:15 $25 Speed Racer POWER HOUR [10 BB] $25 $7,000
    14. Juli So 03:25 $50 Speed Racer POWER HOUR [10 BB] $50 $6,000
    14. Juli So 03:35 $100 Speed Racer POWER HOUR [10 BB] $100 $7,000
    14. Juli So 03:45 $200 Speed Racer POWER HOUR [10 BB] $200 $7,000
    14. Juli So 14:30 $215 Sunday Bounty Blast-Off $215 $35,000
    14. Juli So 14:30 $25 Sunday Bounty Blast-Off $25 $100,000
    14. Juli So 15:30 $10.80 Sunday Bounty Seven-Max $10.80 $50,000
    14. Juli So 15:30 $108 Sunday Bounty Seven-Max $108 $70,000
    14. Juli So 16:05 $10 Speed Racer POWER HOUR [10 BB] $10 $12,500
    14. Juli So 16:15 $25 Speed Racer POWER HOUR [10 BB] $25 $12,500
    14. Juli So 16:25 $50 Speed Racer POWER HOUR [10 BB] $50 $12,500
    14. Juli So 16:30 $840 Sunday Bounty Warm-Up HR $840 $75,000
    14. Juli So 16:30 $88 Sunday Bounty Warm-Up $88 $175,000
    14. Juli So 16:35 $100 Speed Racer POWER HOUR [10 BB] $100 $10,000
    14. Juli So 16:45 $200 Speed Racer POWER HOUR [10 BB] $200 $12,500
    14. Juli So 17:30 $44 Sunday Bounty Forty Stack $44 $200,000
    14. Juli So 18:30 $525 Bounty Hunters HR Main Event, $1M GTD $525 $1,000,000
    14. Juli So 18:30 $54 Bounty Hunters Sunday Main Event $54 $500,000
    14. Juli So 19:30 $215 Sunday Bounty Big Game $215 $350,000
    14. Juli So 19:30 $21.60 Sunday Bounty Big Game $21.60 $200,000
    14. Juli So 19:40 $215 Sunday Omaholic Big Game $215 $50,000
    14. Juli So 21:00 $1,050 Sunday HR Main Event [Bounty Edition] $1,050 $300,000
    14. Juli So 21:30 $320 GGMasters Bounty Special Edition $320 $400,000
    14. Juli So 21:30 $32 Sunday Bounty King $32 $175,000
    14. Juli So 21:40 $1,050 Sunday Omaholic Bounty HR $1,050 $50,000
    14. Juli So 21:40 $150 Sunday Omaholic Bounty Main $150 $100,000
    14. Juli So 22:00 $108 Sunday Showdown [Mystery Bounty] $108 $400,000
    14. Juli So 22:00 $15 Mini Showdown [Mystery Bounty] $15 $250,000
    14. Juli So 23:00 $1,050 Sunday HEATER HR [Bounty Turbo] $1,050 $75,000
    14. Juli So 23:00 $215 Sunday HEATER [Bounty Turbo] $215 $125,000
    14. Juli So 23:00 $25 Sunday Mini HEATER [Bounty Turbo] $25 $100,000
    15. Juli Mo 00:30 $77 LUCKY SEVENS [Bounty Turbo] $77 $125,000
    15. Juli Mo 01:30 $215 Sunday Last Call [Bounty Hyper] $215 $60,000
    15. Juli Mo 02:00 $88 Midnight Madness [Bounty Hyper] $88 $40,000
    15. Juli Mo 03:05 $10 Speed Racer POWER HOUR [10 BB] $10 $5,000
    15. Juli Mo 03:15 $25 Speed Racer POWER HOUR [10 BB] $25 $7,000
    15. Juli Mo 03:25 $50 Speed Racer POWER HOUR [10 BB] $50 $6,000
    15. Juli Mo 03:35 $100 Speed Racer POWER HOUR [10 BB] $100 $7,000
    15. Juli Mo 03:45 $200 Speed Racer POWER HOUR [10 BB] $200 $7,000
    15. Juli Mo 14:30 $25 Bounty Blast-Off $25 $50,000
    15. Juli Mo 15:30 $10.80 Monday Hangover [Variable Levels] $10.80 $30,000
    15. Juli Mo 16:05 $10 Speed Racer POWER HOUR [10 BB] $10 $12,500
    15. Juli Mo 16:15 $25 Speed Racer POWER HOUR [10 BB] $25 $12,500
    15. Juli Mo 16:25 $50 Speed Racer POWER HOUR [10 BB] $50 $12,500
    15. Juli Mo 16:30 $88 Bounty Warm-Up $88 $60,000
    15. Juli Mo 16:35 $100 Speed Racer POWER HOUR [10 BB] $100 $10,000
    15. Juli Mo 16:45 $200 Speed Racer POWER HOUR [10 BB] $200 $12,500
    15. Juli Mo 17:30 $44 Bounty Forty Stack $44 $80,000
    15. Juli Mo 18:30 $525 Bounty Hunters HR [6-Max] $525 $300,000
    15. Juli Mo 18:30 $54 Bounty Hunters Daily Main [6-Max] $54 $250,000
    15. Juli Mo 19:30 $215 Bounty Big Game $215 $150,000
    15. Juli Mo 19:30 $25 Bounty Big Game $25 $100,000
    15. Juli Mo 20:00 $1,050 Monday Monster Stack HR [Bounty Edition] $1,050 $200,000
    15. Juli Mo 20:00 $150 Monday Monster Stack [Bounty Edition] $150 $150,000
    15. Juli Mo 20:00 $15 Mini Monday Monster Stack [Bounty Edition] $15 $75,000
    15. Juli Mo 21:30 $32 Bounty King $32 $70,000
    15. Juli Mo 21:40 $525 Omaholic Bounty Fifty Stack $525 $12,500
    15. Juli Mo 21:40 $54 Omaholic Bounty Fifty Stack $54 $15,000
    15. Juli Mo 23:00 $215 Daily HEATER [Bounty Turbo] $215 $50,000
    15. Juli Di 00:00 $66 SUPER SIX [Bounty Turbo] $66 $40,000
    15. Juli Di 00:30 $25 HYPER 5-MAX $25 $25,000
    16. Juli Di 02:00 $88 Midnight Madness [Bounty Hyper] $88 $40,000
    16. Juli Di 03:05 $10 Speed Racer POWER HOUR [10 BB] $10 $5,000
    16. Juli Di 03:15 $25 Speed Racer POWER HOUR [10 BB] $25 $7,000
    16. Juli Di 03:25 $50 Speed Racer POWER HOUR [10 BB] $50 $6,000
    16. Juli Di 03:35 $100 Speed Racer POWER HOUR [10 BB] $100 $7,000
    16. Juli Di 03:45 $200 Speed Racer POWER HOUR [10 BB] $200 $7,000
    16. Juli Di 15:30 $10.80 Bounty Hunters 6-Max $10.80 $35,000
    16. Juli Di 16:05 $10 Speed Racer POWER HOUR [10 BB] $10 $12,500
    16. Juli Di 16:15 $25 Speed Racer POWER HOUR [10 BB] $25 $12,500
    16. Juli Di 16:25 $50 Speed Racer POWER HOUR [10 BB] $50 $12,500
    16. Juli Di 16:35 $100 Speed Racer POWER HOUR [10 BB] $100 $10,000
    16. Juli Di 16:45 $200 Speed Racer POWER HOUR [10 BB] $200 $12,500
    16. Juli Di 18:30 $525 Bounty Hunters HR [Deepstack] $525 $200,000
    16. Juli Di 18:30 $54 Bounty Hunters Daily Main [Deepstack] $54 $250,000
    16. Juli Di 20:00 $1,050 Tuesday Classic HR [Bounty Edition] $1,050 $150,000
    16. Juli Di 20:00 $150 Tuesday Classic [Bounty Edition] $150 $200,000
    16. Juli Di 20:00 $15 Mini Tuesday Classic [Bounty Edition] $15 $85,000
    17. Juli Mi 03:05 $10 Speed Racer POWER HOUR [10 BB] $10 $5,000
    17. Juli Mi 03:15 $25 Speed Racer POWER HOUR [10 BB] $25 $7,000
    17. Juli Mi 03:25 $50 Speed Racer POWER HOUR [10 BB] $50 $6,000
    17. Juli Mi 03:35 $100 Speed Racer POWER HOUR [10 BB] $100 $7,000
    17. Juli Mi 03:45 $200 Speed Racer POWER HOUR [10 BB] $200 $7,000
    17. Juli Mi 15:30 $10.80 Bounty Hunters 6-Max $10.80 $35,000
    17. Juli Mi 16:05 $10 Speed Racer POWER HOUR [10 BB] $10 $12,500
    17. Juli Mi 16:15 $25 Speed Racer POWER HOUR [10 BB] $25 $12,500
    17. Juli Mi 16:25 $50 Speed Racer POWER HOUR [10 BB] $50 $12,500
    17. Juli Mi 16:35 $100 Speed Racer POWER HOUR [10 BB] $100 $10,000
    17. Juli Mi 16:45 $200 Speed Racer POWER HOUR [10 BB] $200 $12,500
    17. Juli Mi 18:30 $525 Bounty Hunters HR [Double Stack] $525 $200,000
    17. Juli Mi 18:30 $54 Bounty Hunters Daily Main [Double Stack] $54 $250,000
    17. Juli Mi 20:00 $1,050 Wednesday Wonderbox HR [Mystery Bounty] $1,050 $200,000
    17. Juli Mi 20:00 $150 Wednesday Wonderbox [Mystery Bounty] $150 $400,000
    17. Juli Mi 20:00 $15 Mini Wednesday Wonderbox [Mystery Bounty] $15 $200,000
    18. Juli Do 03:05 $10 Speed Racer POWER HOUR [10 BB] $10 $5,000
    18. Juli Do 03:15 $25 Speed Racer POWER HOUR [10 BB] $25 $7,000
    18. Juli Do 03:25 $50 Speed Racer POWER HOUR [10 BB] $50 $6,000
    18. Juli Do 03:35 $100 Speed Racer POWER HOUR [10 BB] $100 $7,000
    18. Juli Do 03:45 $200 Speed Racer POWER HOUR [10 BB] $200 $7,000
    18. Juli Do 15:30 $10.80 Bounty Hunters 6-Max $10.80 $35,000
    18. Juli Do 16:05 $10 Speed Racer POWER HOUR [10 BB] $10 $12,500
    18. Juli Do 16:15 $25 Speed Racer POWER HOUR [10 BB] $25 $12,500
    18. Juli Do 16:25 $50 Speed Racer POWER HOUR [10 BB] $50 $12,500
    18. Juli Do 16:35 $100 Speed Racer POWER HOUR [10 BB] $100 $10,000
    18. Juli Do 16:45 $200 Speed Racer POWER HOUR [10 BB] $200 $12,500
    18. Juli Do 18:30 $525 Bounty Hunters HR [Classic] $525 $300,000
    18. Juli Do 18:30 $54 Bounty Hunters Daily Main [Classic] $54 $250,000
    18. Juli Do 20:00 $1,050 Thursday Throwdown HR $1,050 $300,000
    18. Juli Do 20:00 $150 Thursday Throwdown $150 $200,000
    18. Juli Do 20:00 $15 Mini Thursday Throwdown $15 $85,000
    19. Juli Fr 03:05 $10 Speed Racer POWER HOUR [10 BB] $10 $5,000
    19. Juli Fr 03:15 $25 Speed Racer POWER HOUR [10 BB] $25 $7,000
    19. Juli Fr 03:25 $50 Speed Racer POWER HOUR [10 BB] $50 $6,000
    19. Juli Fr 03:35 $100 Speed Racer POWER HOUR [10 BB] $100 $7,000
    19. Juli Fr 03:45 $200 Speed Racer POWER HOUR [10 BB] $200 $7,000
    19. Juli Fr 15:30 $10.80 Furious Friday 5-Max $10.80 $30,000
    19. Juli Fr 16:05 $10 Speed Racer POWER HOUR [10 BB] $10 $12,500
    19. Juli Fr 16:15 $25 Speed Racer POWER HOUR [10 BB] $25 $12,500
    19. Juli Fr 16:25 $50 Speed Racer POWER HOUR [10 BB] $50 $12,500
    19. Juli Fr 16:35 $100 Speed Racer POWER HOUR [10 BB] $100 $10,000
    19. Juli Fr 16:45 $200 Speed Racer POWER HOUR [10 BB] $200 $12,500
    19. Juli Fr 18:30 $525 Bounty Hunters HR [Ultradeep Turbo] $525 $100,000
    19. Juli Fr 18:30 $54 Bounty Hunters Daily Main [Ultradeep Turbo] $54 $150,000
    19. Juli Fr 20:00 $1,050 Friday Night Fight HR [6-Max] $1,050 $150,000
    19. Juli Fr 20:00 $150 Friday Night Fight [6-Max] $150 $125,000
    19. Juli Fr 20:00 $15 Mini Friday Night Fight [6-Max] $15 $75,000
    20. Juli Sa 03:05 $10 Speed Racer POWER HOUR [10 BB] $10 $5,000
    20. Juli Sa 03:15 $25 Speed Racer POWER HOUR [10 BB] $25 $7,000
    20. Juli Sa 03:25 $50 Speed Racer POWER HOUR [10 BB] $50 $6,000
    20. Juli Sa 03:35 $100 Speed Racer POWER HOUR [10 BB] $100 $7,000
    20. Juli Sa 03:45 $200 Speed Racer POWER HOUR [10 BB] $200 $7,000
    20. Juli Sa 15:30 $10.80 Saturday Showdown 7-Max $10.80 $40,000
    20. Juli Sa 16:05 $10 Speed Racer POWER HOUR [10 BB] $10 $12,500
    20. Juli Sa 16:15 $25 Speed Racer POWER HOUR [10 BB] $25 $12,500
    20. Juli Sa 16:25 $50 Speed Racer POWER HOUR [10 BB] $50 $12,500
    20. Juli Sa 16:35 $100 Speed Racer POWER HOUR [10 BB] $100 $10,000
    20. Juli Sa 16:45 $200 Speed Racer POWER HOUR [10 BB] $200 $12,500
    20. Juli Sa 18:30 $525 Bounty Hunters HR [Big Bounties] $525 $200,000
    20. Juli Sa 18:30 $54 Bounty Hunters Daily Main [Big Bounties] $54 $250,000
    20. Juli Sa 20:00 $1,050 Saturday Secret KO HR [Mystery Bounty] $1,050 $250,000
    20. Juli Sa 20:00 $150 Saturday Secret KO [Mystery Bounty] $150 $500,000
    20. Juli Sa 20:00 $15 Mini Saturday Secret KO [Mystery Bounty] $15 $250,000
    21. Juli So 03:05 $10 Speed Racer POWER HOUR [10 BB] $10 $5,000
    21. Juli So 03:15 $25 Speed Racer POWER HOUR [10 BB] $25 $7,000
    21. Juli So 03:25 $50 Speed Racer POWER HOUR [10 BB] $50 $6,000
    21. Juli So 03:35 $100 Speed Racer POWER HOUR [10 BB] $100 $7,000
    21. Juli So 03:45 $200 Speed Racer POWER HOUR [10 BB] $200 $7,000
    21. Juli So 14:30 $215 Sunday Bounty Blast-Off $215 $35,000
    21. Juli So 14:30 $25 Sunday Bounty Blast-Off $25 $100,000
    21. Juli So 15:30 $10.80 Sunday Bounty Seven-Max $10.80 $50,000
    21. Juli So 15:30 $108 Sunday Bounty Seven-Max $108 $70,000
    21. Juli So 16:05 $10 Speed Racer POWER HOUR [10 BB] $10 $12,500
    21. Juli So 16:15 $25 Speed Racer POWER HOUR [10 BB] $25 $12,500
    21. Juli So 16:25 $50 Speed Racer POWER HOUR [10 BB] $50 $12,500
    21. Juli So 16:30 $840 Sunday Bounty Warm-Up HR $840 $75,000
    21. Juli So 16:30 $88 Sunday Bounty Warm-Up $88 $175,000
    21. Juli So 16:35 $100 Speed Racer POWER HOUR [10 BB] $100 $10,000
    21. Juli So 16:45 $200 Speed Racer POWER HOUR [10 BB] $200 $12,500
    21. Juli So 17:30 $44 Sunday Bounty Forty Stack $44 $200,000
    21. Juli So 18:30 $525 Bounty Hunters HR Main Event, $1M GTD $525 $1,000,000
    21. Juli So 18:30 $54 Bounty Hunters Sunday Main Event $54 $500,000
    21. Juli So 19:30 $215 Sunday Bounty Big Game $215 $350,000
    21. Juli So 19:30 $21.60 Sunday Bounty Big Game $21.60 $200,000
    21. Juli So 19:40 $215 Sunday Omaholic Big Game $215 $50,000
    21. Juli So 21:00 $1,050 Sunday HR Main Event [Bounty Edition] $1,050 $300,000
    21. Juli So 21:30 $320 GGMasters Bounty Special Edition $320 $400,000
    21. Juli So 21:30 $32 Sunday Bounty King $32 $175,000
    21. Juli So 21:40 $1,050 Sunday Omaholic Bounty HR $1,050 $50,000
    21. Juli So 21:40 $150 Sunday Omaholic Bounty Main $150 $100,000
    21. Juli So 22:00 $108 Sunday Showdown [Mystery Bounty] $108 $400,000
    21. Juli So 22:00 $15 Mini Showdown [Mystery Bounty] $15 $250,000
    21. Juli So 22:30 Global MILLION$ Bounty Edition, $1M GTD [Final Stage] $50 $1,000,000
    21. Juli So 23:00 $1,050 Sunday HEATER HR [Bounty Turbo] $1,050 $75,000
    21. Juli So 23:00 $215 Sunday HEATER [Bounty Turbo] $215 $125,000
    21. Juli So 23:00 $25 Sunday Mini HEATER [Bounty Turbo] $25 $100,000
    22. Juli Mo 00:30 $77 LUCKY SEVENS [Bounty Turbo] $77 $125,000
    22. Juli Mo 01:30 $215 Sunday Last Call [Bounty Hyper] $215 $60,000
    22. Juli Mo 02:00 $88 Midnight Madness [Bounty Hyper] $88 $40,000
    22. Juli Mo 03:05 $10 Speed Racer POWER HOUR [10 BB] $10 $5,000
    22. Juli Mo 03:15 $25 Speed Racer POWER HOUR [10 BB] $25 $7,000
    22. Juli Mo 03:25 $50 Speed Racer POWER HOUR [10 BB] $50 $6,000
    22. Juli Mo 03:35 $100 Speed Racer POWER HOUR [10 BB] $100 $7,000
    22. Juli Mo 03:45 $200 Speed Racer POWER HOUR [10 BB] $200 $7,000
    22. Juli Mo 14:30 $25 Bounty Blast-Off $25 $50,000
    22. Juli Mo 15:30 $10.80 Monday Hangover [Variable Levels] $10.80 $30,000
    22. Juli Mo 16:05 $10 Speed Racer POWER HOUR [10 BB] $10 $12,500
    22. Juli Mo 16:15 $25 Speed Racer POWER HOUR [10 BB] $25 $12,500
    22. Juli Mo 16:25 $50 Speed Racer POWER HOUR [10 BB] $50 $12,500
    22. Juli Mo 16:30 $88 Bounty Warm-Up $88 $60,000
    22. Juli Mo 16:35 $100 Speed Racer POWER HOUR [10 BB] $100 $10,000
    22. Juli Mo 16:45 $200 Speed Racer POWER HOUR [10 BB] $200 $12,500
    22. Juli Mo 17:30 $44 Bounty Forty Stack $44 $80,000
    22. Juli Mo 18:30 $525 Bounty Hunters HR [6-Max] $525 $300,000
    22. Juli Mo 18:30 $54 Bounty Hunters Daily Main [6-Max] $54 $250,000
    22. Juli Mo 19:30 $215 Bounty Big Game $215 $150,000
    22. Juli Mo 19:30 $25 Bounty Big Game $25 $100,000
    22. Juli Mo 20:00 $1,050 Monday Monster Stack HR [Bounty Edition] $1,050 $200,000
    22. Juli Mo 20:00 $150 Monday Monster Stack [Bounty Edition] $150 $150,000
    22. Juli Mo 20:00 $15 Mini Monday Monster Stack [Bounty Edition] $15 $75,000
    22. Juli Mo 21:30 $32 Bounty King $32 $70,000
    22. Juli Mo 21:40 $525 Omaholic Bounty Fifty Stack $525 $12,500
    22. Juli Mo 21:40 $54 Omaholic Bounty Fifty Stack $54 $15,000
    22. Juli Mo 23:00 $215 Daily HEATER [Bounty Turbo] $215 $50,000
    23. Juli Di 00:00 $66 SUPER SIX [Bounty Turbo] $66 $40,000
    23. Juli Di 00:30 $25 HYPER 5-MAX $25 $25,000
    23. Juli Di 02:00 $88 Midnight Madness [Bounty Hyper] $88 $40,000
    23. Juli Di 03:05 $10 Speed Racer POWER HOUR [10 BB] $10 $5,000
    23. Juli Di 03:15 $25 Speed Racer POWER HOUR [10 BB] $25 $7,000
    23. Juli Di 03:25 $50 Speed Racer POWER HOUR [10 BB] $50 $6,000
    23. Juli Di 03:35 $100 Speed Racer POWER HOUR [10 BB] $100 $7,000
    23. Juli Di 03:45 $200 Speed Racer POWER HOUR [10 BB] $200 $7,000
    23. Juli Di 15:30 $10.80 Bounty Hunters 6-Max $10.80 $35,000
    23. Juli Di 16:05 $10 Speed Racer POWER HOUR [10 BB] $10 $12,500
    23. Juli Di 16:15 $25 Speed Racer POWER HOUR [10 BB] $25 $12,500
    23. Juli Di 16:25 $50 Speed Racer POWER HOUR [10 BB] $50 $12,500
    23. Juli Di 16:35 $100 Speed Racer POWER HOUR [10 BB] $100 $10,000
    23. Juli Di 16:45 $200 Speed Racer POWER HOUR [10 BB] $200 $12,500
    23. Juli Di 18:30 $525 Bounty Hunters HR [Deepstack] $525 $200,000
    23. Juli Di 18:30 $54 Bounty Hunters Daily Main [Deepstack] $54 $250,000
    23. Juli Di 20:00 $1,050 Tuesday Classic HR [Bounty Edition] $1,050 $150,000
    23. Juli Di 20:00 $150 Tuesday Classic [Bounty Edition] $150 $200,000
    23. Juli Di 20:00 $15 Mini Tuesday Classic [Bounty Edition] $15 $85,000
    24. Juli Mi 03:05 $10 Speed Racer POWER HOUR [10 BB] $10 $5,000
    24. Juli Mi 03:15 $25 Speed Racer POWER HOUR [10 BB] $25 $7,000
    24. Juli Mi 03:25 $50 Speed Racer POWER HOUR [10 BB] $50 $6,000
    24. Juli Mi 03:35 $100 Speed Racer POWER HOUR [10 BB] $100 $7,000
    24. Juli Mi 03:45 $200 Speed Racer POWER HOUR [10 BB] $200 $7,000
    24. Juli Mi 15:30 $10.80 Bounty Hunters 6-Max $10.80 $35,000
    24. Juli Mi 16:05 $10 Speed Racer POWER HOUR [10 BB] $10 $12,500
    24. Juli Mi 16:15 $25 Speed Racer POWER HOUR [10 BB] $25 $12,500
    24. Juli Mi 16:25 $50 Speed Racer POWER HOUR [10 BB] $50 $12,500
    24. Juli Mi 16:35 $100 Speed Racer POWER HOUR [10 BB] $100 $10,000
    24. Juli Mi 16:45 $200 Speed Racer POWER HOUR [10 BB] $200 $12,500
    24. Juli Mi 18:30 $525 Bounty Hunters HR [Double Stack] $525 $200,000
    24. Juli Mi 18:30 $54 Bounty Hunters Daily Main [Double Stack] $54 $250,000
    24. Juli Mi 20:00 $1,050 Wednesday Wonderbox HR [Mystery Bounty] $1,050 $200,000
    24. Juli Mi 20:00 $150 Wednesday Wonderbox [Mystery Bounty] $150 $400,000
    24. Juli Mi 20:00 $15 Mini Wednesday Wonderbox [Mystery Bounty] $15 $200,000
    25. Juli Do 03:05 $10 Speed Racer POWER HOUR [10 BB] $10 $5,000
    25. Juli Do 03:15 $25 Speed Racer POWER HOUR [10 BB] $25 $7,000
    25. Juli Do 03:25 $50 Speed Racer POWER HOUR [10 BB] $50 $6,000
    25. Juli Do 03:35 $100 Speed Racer POWER HOUR [10 BB] $100 $7,000
    25. Juli Do 03:45 $200 Speed Racer POWER HOUR [10 BB] $200 $7,000
    25. Juli Do 15:30 $10.80 Bounty Hunters 6-Max $10.80 $35,000
    25. Juli Do 16:05 $10 Speed Racer POWER HOUR [10 BB] $10 $12,500
    25. Juli Do 16:15 $25 Speed Racer POWER HOUR [10 BB] $25 $12,500
    25. Juli Do 16:25 $50 Speed Racer POWER HOUR [10 BB] $50 $12,500
    25. Juli Do 16:35 $100 Speed Racer POWER HOUR [10 BB] $100 $10,000
    25. Juli Do 16:45 $200 Speed Racer POWER HOUR [10 BB] $200 $12,500
    25. Juli Do 18:30 $525 Bounty Hunters HR [Classic] $525 $300,000
    25. Juli Do 18:30 $54 Bounty Hunters Daily Main [Classic] $54 $250,000
    25. Juli Do 20:00 $1,050 Thursday Throwdown HR $1,050 $300,000
    25. Juli Do 20:00 $150 Thursday Throwdown $150 $200,000
    25. Juli Do 20:00 $15 Mini Thursday Throwdown $15 $85,000
    26. Juli Fr 03:05 $10 Speed Racer POWER HOUR [10 BB] $10 $5,000
    26. Juli Fr 03:15 $25 Speed Racer POWER HOUR [10 BB] $25 $7,000
    26. Juli Fr 03:25 $50 Speed Racer POWER HOUR [10 BB] $50 $6,000
    26. Juli Fr 03:35 $100 Speed Racer POWER HOUR [10 BB] $100 $7,000
    26. Juli Fr 03:45 $200 Speed Racer POWER HOUR [10 BB] $200 $7,000
    26. Juli Fr 15:30 $10.80 Furious Friday 5-Max $10.80 $30,000
    26. Juli Fr 16:05 $10 Speed Racer POWER HOUR [10 BB] $10 $12,500
    26. Juli Fr 16:15 $25 Speed Racer POWER HOUR [10 BB] $25 $12,500
    26. Juli Fr 16:25 $50 Speed Racer POWER HOUR [10 BB] $50 $12,500
    26. Juli Fr 16:35 $100 Speed Racer POWER HOUR [10 BB] $100 $10,000
    26. Juli Fr 16:45 $200 Speed Racer POWER HOUR [10 BB] $200 $12,500
    26. Juli Fr 18:30 $525 Bounty Hunters HR [Ultradeep Turbo] $525 $100,000
    26. Juli Fr 18:30 $54 Bounty Hunters Daily Main [Ultradeep Turbo] $54 $150,000
    26. Juli Fr 20:00 $1,050 Friday Night Fight HR [6-Max] $1,050 $150,000
    26. Juli Fr 20:00 $150 Friday Night Fight [6-Max] $150 $125,000
    26. Juli Fr 20:00 $15 Mini Friday Night Fight [6-Max] $15 $75,000
    27. Juli Sa 03:05 $10 Speed Racer POWER HOUR [10 BB] $10 $5,000
    27. Juli Sa 03:15 $25 Speed Racer POWER HOUR [10 BB] $25 $7,000
    27. Juli Sa 03:25 $50 Speed Racer POWER HOUR [10 BB] $50 $6,000
    27. Juli Sa 03:35 $100 Speed Racer POWER HOUR [10 BB] $100 $7,000
    27. Juli Sa 03:45 $200 Speed Racer POWER HOUR [10 BB] $200 $7,000
    27. Juli Sa 15:30 $10.80 Saturday Showdown 7-Max $10.80 $40,000
    27. Juli Sa 16:05 $10 Speed Racer POWER HOUR [10 BB] $10 $12,500
    27. Juli Sa 16:15 $25 Speed Racer POWER HOUR [10 BB] $25 $12,500
    27. Juli Sa 16:25 $50 Speed Racer POWER HOUR [10 BB] $50 $12,500
    27. Juli Sa 16:35 $100 Speed Racer POWER HOUR [10 BB] $100 $10,000
    27. Juli Sa 16:45 $200 Speed Racer POWER HOUR [10 BB] $200 $12,500
    27. Juli Sa 18:30 $525 Bounty Hunters HR [Big Bounties] $525 $200,000
    27. Juli Sa 18:30 $54 Bounty Hunters Daily Main [Big Bounties] $54 $250,000
    27. Juli Sa 20:00 $1,050 Saturday Secret KO HR [Mystery Bounty] $1,050 $250,000
    27. Juli Sa 20:00 $150 Saturday Secret KO [Mystery Bounty] $150 $500,000
    27. Juli Sa 20:00 $15 Mini Saturday Secret KO [Mystery Bounty] $15 $250,000
    28. Juli So 03:05 $10 Speed Racer POWER HOUR [10 BB] $10 $5,000
    28. Juli So 03:15 $25 Speed Racer POWER HOUR [10 BB] $25 $7,000
    28. Juli So 03:25 $50 Speed Racer POWER HOUR [10 BB] $50 $6,000
    28. Juli So 03:35 $100 Speed Racer POWER HOUR [10 BB] $100 $7,000
    28. Juli So 03:45 $200 Speed Racer POWER HOUR [10 BB] $200 $7,000
    28. Juli So 14:30 $215 Sunday Bounty Blast-Off $215 $35,000
    28. Juli So 14:30 $25 Sunday Bounty Blast-Off $25 $100,000
    28. Juli So 15:30 $10.80 Sunday Bounty Seven-Max $10.80 $50,000
    28. Juli So 15:30 $108 Sunday Bounty Seven-Max $108 $70,000
    28. Juli So 16:05 $10 Speed Racer POWER HOUR [10 BB] $10 $12,500
    28. Juli So 16:15 $25 Speed Racer POWER HOUR [10 BB] $25 $12,500
    28. Juli So 16:25 $50 Speed Racer POWER HOUR [10 BB] $50 $12,500
    28. Juli So 16:30 $840 Sunday Bounty Warm-Up HR $840 $75,000
    28. Juli So 16:30 $88 Sunday Bounty Warm-Up $88 $175,000
    28. Juli So 16:35 $100 Speed Racer POWER HOUR [10 BB] $100 $10,000
    28. Juli So 16:45 $200 Speed Racer POWER HOUR [10 BB] $200 $12,500
    28. Juli So 17:30 $44 Sunday Bounty Forty Stack $44 $200,000
    28. Juli So 18:30 $525 Bounty Hunters HR Main Event, $1M GTD $525 $1,000,000
    28. Juli So 18:30 $54 Bounty Hunters Sunday Main Event $54 $500,000
    28. Juli So 19:30 $215 Sunday Bounty Big Game $215 $350,000
    28. Juli So 19:30 $21.60 Sunday Bounty Big Game $21.60 $200,000
    28. Juli So 19:40 $215 Sunday Omaholic Big Game $215 $50,000
    28. Juli So 21:00 $1,050 Sunday HR Main Event [Bounty Edition] $1,050 $300,000
    28. Juli So 21:30 $320 GGMasters Bounty Special Edition $320 $400,000
    28. Juli So 21:30 $32 Sunday Bounty King $32 $175,000
    28. Juli So 21:40 $1,050 Sunday Omaholic Bounty HR $1,050 $50,000
    28. Juli So 21:40 $150 Sunday Omaholic Bounty Main $150 $100,000
    28. Juli So 22:00 $108 Sunday Showdown [Mystery Bounty] $108 $400,000
    28. Juli So 22:00 $15 Mini Showdown [Mystery Bounty] $15 $250,000
    28. Juli So 23:00 $1,050 Sunday HEATER HR [Bounty Turbo] $1,050 $75,000
    28. Juli So 23:00 $215 Sunday HEATER [Bounty Turbo] $215 $125,000
    28. Juli So 23:00 $25 Sunday Mini HEATER [Bounty Turbo] $25 $100,000
    29. Juli Mo 00:30 $77 LUCKY SEVENS [Bounty Turbo] $77 $125,000
    29. Juli Mo 01:30 $215 Sunday Last Call [Bounty Hyper] $215 $60,000
    29. Juli Mo 02:00 $88 Midnight Madness [Bounty Hyper] $88 $40,000
    29. Juli Mo 03:05 $10 Speed Racer POWER HOUR [10 BB] $10 $5,000
    29. Juli Mo 03:15 $25 Speed Racer POWER HOUR [10 BB] $25 $7,000
    29. Juli Mo 03:25 $50 Speed Racer POWER HOUR [10 BB] $50 $6,000
    29. Juli Mo 03:35 $100 Speed Racer POWER HOUR [10 BB] $100 $7,000
    29. Juli Mo 03:45 $200 Speed Racer POWER HOUR [10 BB] $200 $7,000
    29. Juli Mo 14:30 $25 Bounty Blast-Off $25 $50,000
    29. Juli Mo 15:30 $10.80 Monday Hangover [Variable Levels] $10.80 $30,000
    29. Juli Mo 16:05 $10 Speed Racer POWER HOUR [10 BB] $10 $12,500
    29. Juli Mo 16:15 $25 Speed Racer POWER HOUR [10 BB] $25 $12,500
    29. Juli Mo 16:25 $50 Speed Racer POWER HOUR [10 BB] $50 $12,500
    29. Juli Mo 16:30 $88 Bounty Warm-Up $88 $60,000
    29. Juli Mo 16:35 $100 Speed Racer POWER HOUR [10 BB] $100 $10,000
    29. Juli Mo 16:45 $200 Speed Racer POWER HOUR [10 BB] $200 $12,500
    29. Juli Mo 17:30 $44 Bounty Forty Stack $44 $80,000
    29. Juli Mo 18:30 $525 Bounty Hunters HR [6-Max] $525 $300,000
    29. Juli Mo 18:30 $54 Bounty Hunters Daily Main [6-Max] $54 $250,000
    29. Juli Mo 19:30 $215 Bounty Big Game $215 $150,000
    29. Juli Mo 19:30 $25 Bounty Big Game $25 $100,000
    29. Juli Mo 20:00 $1,050 Monday Monster Stack HR [Bounty Edition] $1,050 $200,000
    29. Juli Mo 20:00 $150 Monday Monster Stack [Bounty Edition] $150 $150,000
    29. Juli Mo 20:00 $15 Mini Monday Monster Stack [Bounty Edition] $15 $75,000
    29. Juli Mo 20:30 Mystery MILLION$ Main Event, $4M GTD [Day 2] $108 $4,000,000
    29. Juli Mo 21:30 $32 Bounty King $32 $70,000
    29. Juli Mo 21:40 $525 Omaholic Bounty Fifty Stack $525 $12,500
    29. Juli Mo 21:40 $54 Omaholic Bounty Fifty Stack $54 $15,000
    29. Juli Mo 23:00 $215 Daily HEATER [Bounty Turbo] $215 $50,000
    30. Juli Di 00:00 $66 SUPER SIX [Bounty Turbo] $66 $40,000
    30. Juli Di 00:30 $25 HYPER 5-MAX $25 $25,000
    30. Juli Di 02:00 $88 Midnight Madness [Bounty Hyper] $88 $40,000
    30. Juli Di 03:05 $10 Speed Racer POWER HOUR [10 BB] $10 $5,000
    30. Juli Di 03:15 $25 Speed Racer POWER HOUR [10 BB] $25 $7,000
    30. Juli Di 03:25 $50 Speed Racer POWER HOUR [10 BB] $50 $6,000
    30. Juli Di 03:35 $100 Speed Racer POWER HOUR [10 BB] $100 $7,000
    30. Juli Di 03:45 $200 Speed Racer POWER HOUR [10 BB] $200 $7,000

    Teilnahmebedingungen

    • Das Bounty King Daily Leaderboard läuft täglich von 06:00:00 – 05:59:59 (UTC).
    • Punkte können nur während der Bounty Hunter Series-Turniere gesammelt werden.
    • Im Falle eines Gleichstandes in der Rangliste gewinnt der Spieler, der zuerst die Gesamtpunktzahl erreicht hat. Besteht weiterhin Gleichstand, entscheidet die Endzeit des Turniers, in dem die Punktzahl erreicht wurde.
    • Das Mindestalter für die Teilnahme an allen Aktionen von GGPoker beträgt 18 Jahre.
    • Die Teilnahmebedingungen dieser und aller Aktionen unterliegen den Allgemeinen Geschäftsbedingungen von GGPoker.
    • Es gelten die Hausregeln von GGPoker.
    • GGPoker behält sich das Recht vor, die Aktion jederzeit zu ändern oder auszusetzen.
    • Sollte ein Spieler durch betrügerische Aktivitäten auffallen, besitzt GGPoker das Recht zur Nachforschung und im Falle nachgewiesenen Betrugs zum Ausschluss des Spielers.
    • Bitte beachten, dass sich Preispool-Garantien ändern und einige auf dieser Website aufgeführte Beträge daher möglicherweise nicht aktuell sein können. Bitte die in der Turnier-Lobby der GGPoker-App aufgeführten garantierten Beträge überprüfen, um aktuelle Informationen zum Preispool einzusehen.
    • Alle Zeitangaben sind, wo nicht explizit in UTC ausgewiesen, in MEZ bzw. während der Sommerzeit in MESZ.
    Verantwortungsbewusst spielen. Hilfe unter bzga.de und buwei.de